Ark, Virginia
Current Conditions -  °F | °C
As of 10:15 AM on Saturday 25 Oct 2014 (Local Time) from KFYJ Reporting Station
Clear Clear  
Wind Chill: 16°   Ceiling: Unl
Heat Index: 16°   Visibility: 10mi
Dew Point:   Wind: 0mph
Humidity: 58%   Direction: NA
Pressure: 30"   Gusts: NA
Location:  37.44°N, 76.58°W
Report Text: KFYJ 251415Z AUTO 00000KT 10SM CLR 16/08 A3000 RMK AO2 T01610078
Loading
Personal Weather Stations






























Interactive Weather Map
Tropical Storm Tracking
New forecast layout! Learn more

10-Day Weather Forecast

Advertisements
Track Severe Weather on mobile